createdAt,value
2022-08-03T00:00:54.250Z,95179
2022-08-03T00:04:19.567Z,95182
2022-08-03T00:07:44.857Z,95184
2022-08-03T00:11:10.201Z,95184
2022-08-03T00:14:35.542Z,95176
2022-08-03T00:18:00.854Z,95183
2022-08-03T00:21:26.161Z,95180
2022-08-03T00:24:51.533Z,95180
2022-08-03T00:28:16.845Z,95184
2022-08-03T00:31:51.731Z,95180
2022-08-03T00:35:08.473Z,95170
2022-08-03T00:38:32.791Z,95177
2022-08-03T00:41:58.154Z,95181
2022-08-03T00:45:23.527Z,95178
2022-08-03T00:48:48.877Z,95178
2022-08-03T00:52:14.252Z,95182
2022-08-03T00:55:39.606Z,95182
2022-08-03T00:59:04.946Z,95181
2022-08-03T01:02:30.292Z,95186
2022-08-03T01:05:55.615Z,95186
2022-08-03T01:09:20.976Z,95183
2022-08-03T01:12:46.306Z,95185
2022-08-03T01:16:11.652Z,95185
2022-08-03T01:19:36.978Z,95183
2022-08-03T01:23:02.358Z,95184
2022-08-03T01:26:27.725Z,95180
2022-08-03T01:29:53.091Z,95180
2022-08-03T01:33:18.434Z,95182
2022-08-03T01:36:43.779Z,95176
2022-08-03T01:40:09.157Z,95174
2022-08-03T01:43:55.760Z,95172
2022-08-03T01:46:59.874Z,95172
2022-08-03T01:50:25.220Z,95168
2022-08-03T01:53:50.567Z,95168
2022-08-03T01:57:15.908Z,95168
2022-08-03T02:00:41.316Z,95166
2022-08-03T02:04:06.686Z,95164
2022-08-03T02:07:32.003Z,95159
2022-08-03T02:10:57.378Z,95155
2022-08-03T02:14:22.732Z,95156
2022-08-03T02:17:48.097Z,95157
2022-08-03T02:21:21.109Z,95155
2022-08-03T02:24:38.802Z,95157
2022-08-03T02:28:04.160Z,95152
2022-08-03T02:31:29.530Z,95152
2022-08-03T02:34:54.863Z,95153
2022-08-03T02:38:20.227Z,95150
2022-08-03T02:41:45.590Z,95152
2022-08-03T02:45:10.961Z,95146
2022-08-03T02:48:36.312Z,95146
2022-08-03T02:52:01.690Z,95146
2022-08-03T02:55:27.056Z,95144
2022-08-03T02:58:52.544Z,95144
2022-08-03T03:02:18.180Z,95142
2022-08-03T03:05:51.870Z,95140
2022-08-03T03:09:09.690Z,95143
2022-08-03T03:12:35.112Z,95136
2022-08-03T03:16:00.533Z,95141
2022-08-03T03:19:25.899Z,95137
2022-08-03T03:22:51.306Z,95136
2022-08-03T03:26:16.674Z,95139
2022-08-03T03:29:42.052Z,95141
2022-08-03T03:33:07.507Z,95140
2022-08-03T03:36:32.822Z,95143
2022-08-03T03:39:58.227Z,95139
2022-08-03T03:43:23.585Z,95135
2022-08-03T03:46:48.985Z,95141
2022-08-03T03:50:14.394Z,95138
2022-08-03T03:53:39.757Z,95143
2022-08-03T03:57:05.167Z,95148
2022-08-03T04:00:30.564Z,95147
2022-08-03T04:03:55.890Z,95148
2022-08-03T04:07:21.272Z,95153
2022-08-03T04:10:46.697Z,95151
2022-08-03T04:14:12.080Z,95149
2022-08-03T04:17:37.405Z,95141
2022-08-03T04:21:02.814Z,95138
2022-08-03T04:24:28.162Z,95139
2022-08-03T04:28:07.870Z,95144
2022-08-03T04:31:18.900Z,95144
2022-08-03T04:34:44.280Z,95143
2022-08-03T04:38:09.634Z,95146
2022-08-03T04:42:02.154Z,95144
2022-08-03T04:45:01.516Z,95150
2022-08-03T04:48:25.820Z,95155
2022-08-03T04:51:51.211Z,95156
2022-08-03T04:55:16.546Z,95153
2022-08-03T04:58:41.871Z,95162
2022-08-03T05:02:07.319Z,95160
2022-08-03T05:05:37.885Z,95162
2022-08-03T05:08:57.841Z,95167
2022-08-03T05:12:23.262Z,95163
2022-08-03T05:15:48.575Z,95164
2022-08-03T05:19:13.901Z,95165
2022-08-03T05:22:39.222Z,95160
2022-08-03T05:26:04.545Z,95165
2022-08-03T05:29:29.854Z,95169
2022-08-03T05:32:55.219Z,95166
2022-08-03T05:36:20.555Z,95167
2022-08-03T05:39:45.900Z,95172
2022-08-03T05:43:11.240Z,95170
2022-08-03T05:46:36.549Z,95170
2022-08-03T05:50:01.847Z,95168
2022-08-03T05:53:27.193Z,95171
2022-08-03T05:56:52.582Z,95168
2022-08-03T06:00:17.903Z,95168
2022-08-03T06:03:43.196Z,95173
2022-08-03T06:07:08.526Z,95167
2022-08-03T06:10:37.681Z,95167
2022-08-03T06:13:59.193Z,95163
2022-08-03T06:17:24.555Z,95170
2022-08-03T06:20:50.331Z,95168
2022-08-03T06:24:15.174Z,95168
2022-08-03T06:27:40.548Z,95169
2022-08-03T06:31:06.495Z,95161
2022-08-03T06:34:35.537Z,95163
2022-08-03T06:37:56.490Z,95165
2022-08-03T06:41:21.810Z,95166
2022-08-03T06:44:47.126Z,95167
2022-08-03T06:48:12.458Z,95170
2022-08-03T06:52:02.832Z,95164
2022-08-03T06:55:03.101Z,95169
2022-08-03T06:58:28.418Z,95166
2022-08-03T07:01:53.799Z,95170
2022-08-03T07:05:19.087Z,95166
2022-08-03T07:08:44.409Z,95165
2022-08-03T07:12:09.798Z,95159
2022-08-03T07:15:38.530Z,95169
2022-08-03T07:19:00.549Z,95168
2022-08-03T07:22:25.895Z,95169
2022-08-03T07:25:51.235Z,95168
2022-08-03T07:29:16.549Z,95162
2022-08-03T07:32:49.032Z,95165
2022-08-03T07:36:07.244Z,95164
2022-08-03T07:39:32.575Z,95156
2022-08-03T07:42:57.931Z,95160
2022-08-03T07:46:23.298Z,95160
2022-08-03T07:49:48.648Z,95165
2022-08-03T07:53:13.963Z,95162
2022-08-03T07:56:39.286Z,95165
2022-08-03T08:00:04.592Z,95155
2022-08-03T08:03:29.927Z,95152
2022-08-03T08:06:55.262Z,95157
2022-08-03T08:10:20.609Z,95153
2022-08-03T08:13:45.923Z,95158
2022-08-03T08:17:11.263Z,95150
2022-08-03T08:20:38.100Z,95151
2022-08-03T08:24:02.793Z,95153
2022-08-03T08:27:28.205Z,95151
2022-08-03T08:30:53.599Z,95156
2022-08-03T08:34:18.913Z,95149
2022-08-03T08:37:44.254Z,95154
2022-08-03T08:41:09.598Z,95147
2022-08-03T08:44:34.924Z,95140
2022-08-03T08:48:03.495Z,95144
2022-08-03T08:51:51.075Z,95142
2022-08-03T08:54:51.087Z,95145
2022-08-03T08:58:19.725Z,95142
2022-08-03T09:01:42.648Z,95140
2022-08-03T09:05:08.030Z,95145
2022-08-03T09:08:33.340Z,95138
2022-08-03T09:12:14.535Z,95144
2022-08-03T09:15:24.043Z,95142
2022-08-03T09:18:49.363Z,95137
2022-08-03T09:22:14.698Z,95141
2022-08-03T09:25:40.026Z,95141
2022-08-03T09:29:09.513Z,95135
2022-08-03T09:32:30.695Z,95134
2022-08-03T09:35:57.740Z,95135
2022-08-03T09:39:21.743Z,95134
2022-08-03T09:42:46.737Z,95128
2022-08-03T09:46:12.075Z,95136
2022-08-03T09:49:37.527Z,95124
2022-08-03T09:53:02.765Z,95127
2022-08-03T09:56:33.180Z,95132
2022-08-03T10:00:03.210Z,95125
2022-08-03T10:03:18.823Z,95125
2022-08-03T10:06:44.158Z,95124
2022-08-03T10:10:28.618Z,95121
2022-08-03T10:13:34.861Z,95118
2022-08-03T10:17:00.189Z,95117
2022-08-03T10:20:25.536Z,95120
2022-08-03T10:23:50.841Z,95119
2022-08-03T10:27:16.516Z,95120
2022-08-03T10:30:41.643Z,95121
2022-08-03T10:34:07.012Z,95114
2022-08-03T10:37:32.358Z,95112
2022-08-03T10:40:59.163Z,95108
2022-08-03T10:44:23.038Z,95111
2022-08-03T10:47:48.377Z,95101
2022-08-03T10:51:13.696Z,95095
2022-08-03T10:54:39.037Z,95089
2022-08-03T10:58:07.979Z,95093
2022-08-03T11:01:33.011Z,95092
2022-08-03T11:04:55.042Z,95089
2022-08-03T11:08:20.389Z,95092
2022-08-03T11:11:45.717Z,95093
2022-08-03T11:15:11.054Z,95086
2022-08-03T11:18:36.350Z,95082
2022-08-03T11:22:01.712Z,95086
2022-08-03T11:25:34.738Z,95079
2022-08-03T11:28:52.386Z,95084
2022-08-03T11:32:19.537Z,95079
2022-08-03T11:35:43.060Z,95078
2022-08-03T11:39:08.413Z,95074
2022-08-03T11:42:33.741Z,95076
2022-08-03T11:45:59.094Z,95080
2022-08-03T11:49:24.503Z,95078
2022-08-03T11:52:49.749Z,95079
2022-08-03T11:56:15.088Z,95079
2022-08-03T11:59:40.403Z,95076
2022-08-03T12:03:05.822Z,95078
2022-08-03T12:06:31.203Z,95076
2022-08-03T12:09:56.610Z,95076
2022-08-03T12:13:57.069Z,95068
2022-08-03T12:16:47.371Z,95066
2022-08-03T12:20:12.692Z,95052
2022-08-03T12:23:38.177Z,95059
2022-08-03T12:27:03.342Z,95052
2022-08-03T12:30:28.691Z,95058
2022-08-03T12:33:54.045Z,95050
2022-08-03T12:37:22.379Z,95048
2022-08-03T12:40:44.718Z,95042
2022-08-03T12:44:10.061Z,95035
2022-08-03T12:47:35.389Z,95039
2022-08-03T12:51:00.710Z,95037
2022-08-03T12:54:26.081Z,95039
2022-08-03T12:57:51.441Z,95033
2022-08-03T13:01:16.864Z,95035
2022-08-03T13:04:42.685Z,95028
2022-08-03T13:08:08.072Z,95029
2022-08-03T13:11:50.623Z,95028
2022-08-03T13:14:58.838Z,95023
2022-08-03T13:18:24.247Z,95028
2022-08-03T13:21:53.296Z,95026
2022-08-03T13:25:14.986Z,95022
2022-08-03T13:28:40.369Z,95031
2022-08-03T13:32:05.711Z,95017
2022-08-03T13:35:31.117Z,95013
2022-08-03T13:38:56.504Z,95016
2022-08-03T13:42:21.913Z,95019
2022-08-03T13:45:51.392Z,95018
2022-08-03T13:49:12.604Z,95016
2022-08-03T13:52:38.013Z,95008
2022-08-03T13:56:03.465Z,95001
2022-08-03T13:59:30.264Z,95002
2022-08-03T14:03:02.099Z,94998
2022-08-03T14:06:21.958Z,94991
2022-08-03T14:09:47.341Z,94989
2022-08-03T14:13:12.746Z,94990
2022-08-03T14:16:38.154Z,94990
2022-08-03T14:20:03.693Z,94993
2022-08-03T14:23:28.992Z,94990
2022-08-03T14:26:58.415Z,94991
2022-08-03T15:06:12.232Z,94980
2022-08-03T15:09:37.603Z,94967
2022-08-03T15:13:02.987Z,94970
2022-08-03T15:16:29.884Z,94964
2022-08-03T15:20:00.136Z,94958
2022-08-03T15:23:19.106Z,94958
2022-08-03T15:26:44.480Z,94953
2022-08-03T15:30:10.523Z,94949
2022-08-03T15:33:35.470Z,94942
2022-08-03T15:37:00.684Z,94946
2022-08-03T15:40:26.088Z,94949
2022-08-03T15:43:51.514Z,94948
2022-08-03T15:47:16.918Z,94950
2022-08-03T15:50:42.514Z,94950
2022-08-03T15:54:07.886Z,94950
2022-08-03T15:57:33.328Z,94945
2022-08-03T16:00:58.742Z,94945
2022-08-03T16:04:24.164Z,94952
2022-08-03T16:08:02.597Z,94948
2022-08-03T16:11:14.871Z,94952
2022-08-03T16:14:51.002Z,94945
2022-08-03T16:18:06.368Z,94945
2022-08-03T16:21:31.800Z,94939
2022-08-03T16:24:57.166Z,94938
2022-08-03T16:28:22.582Z,94938
2022-08-03T16:31:51.049Z,94944
2022-08-03T16:35:19.368Z,94945
2022-08-03T16:38:39.646Z,94946
2022-08-03T16:42:05.074Z,94945
2022-08-03T16:45:30.461Z,94947
2022-08-03T16:48:55.894Z,94944
2022-08-03T16:52:21.322Z,94939
2022-08-03T16:55:49.196Z,94941
2022-08-03T16:59:12.091Z,94946
2022-08-03T17:02:37.506Z,94941
2022-08-03T17:06:02.870Z,94949
2022-08-03T17:09:28.248Z,94947
2022-08-03T17:12:53.660Z,94945
2022-08-03T17:16:19.138Z,94947
2022-08-03T17:19:47.053Z,94951
2022-08-03T17:23:10.852Z,94956
2022-08-03T17:26:35.326Z,94951
2022-08-03T17:30:00.719Z,94952
2022-08-03T17:33:26.065Z,94954
2022-08-03T17:37:06.764Z,94955
2022-08-03T17:40:17.568Z,94950
2022-08-03T17:43:44.236Z,94955
2022-08-03T17:47:07.740Z,94959
2022-08-03T17:50:33.074Z,94962
2022-08-03T17:53:58.459Z,94960
2022-08-03T17:57:26.457Z,94962
2022-08-03T18:04:14.675Z,94966
2022-08-03T18:07:40.635Z,94968
2022-08-03T18:11:09.627Z,94967
2022-08-03T18:14:30.765Z,94979
2022-08-03T18:17:58.457Z,94978
2022-08-03T18:21:21.525Z,94978
2022-08-03T18:24:46.969Z,94975
2022-08-03T18:28:12.400Z,94974
2022-08-03T18:32:00.308Z,94975
2022-08-03T18:35:03.296Z,94975
2022-08-03T18:38:28.673Z,94976
2022-08-03T18:41:54.084Z,94974
2022-08-03T18:45:56.553Z,94970
2022-08-03T18:48:46.027Z,94976
2022-08-03T18:52:22.335Z,94977
2022-08-03T18:55:35.830Z,94980
2022-08-03T18:59:02.341Z,94979
2022-08-03T19:02:26.417Z,94980
2022-08-03T19:05:57.898Z,94973
2022-08-03T19:09:17.259Z,94976
2022-08-03T19:12:42.849Z,94986
2022-08-03T19:16:08.529Z,94983
2022-08-03T19:19:43.710Z,94984
2022-08-03T19:22:58.827Z,94985
2022-08-03T19:26:30.733Z,94985
2022-08-03T19:29:58.229Z,94986
2022-08-03T19:33:14.999Z,94990
2022-08-03T19:36:43.715Z,94998
2022-08-03T19:40:05.753Z,94998
2022-08-03T19:43:33.175Z,94996
2022-08-03T19:46:56.457Z,94994
2022-08-03T19:50:21.799Z,94991
2022-08-03T19:53:47.098Z,94994
2022-08-03T19:57:15.957Z,94989
2022-08-03T20:00:38.231Z,94994
2022-08-03T20:04:03.069Z,94990
2022-08-03T20:07:28.380Z,94986
2022-08-03T20:10:53.705Z,94988
2022-08-03T20:14:20.656Z,94988
2022-08-03T20:17:55.735Z,94991
2022-08-03T20:21:15.023Z,94993
2022-08-03T20:24:35.260Z,94988
2022-08-03T20:28:07.593Z,94996
2022-08-03T20:31:32.196Z,94995
2022-08-03T20:34:51.139Z,94987
2022-08-03T20:38:16.448Z,94990
2022-08-03T20:41:41.788Z,94987
2022-08-03T20:45:13.017Z,94982
2022-08-03T20:48:32.414Z,94983
2022-08-03T20:51:57.745Z,94990
2022-08-03T20:55:47.113Z,94986
2022-08-03T20:58:50.380Z,94983
2022-08-03T21:02:13.923Z,94984
2022-08-03T21:05:48.158Z,94988
2022-08-03T21:09:05.452Z,94988
2022-08-03T21:12:31.253Z,94989
2022-08-03T21:12:59.963Z,94967
2022-08-03T21:15:59.815Z,94994
2022-08-03T21:19:22.798Z,94993
2022-08-03T21:22:48.576Z,94987
2022-08-03T21:26:14.344Z,94984
2022-08-03T21:29:52.847Z,94986
2022-08-03T21:33:05.943Z,94984
2022-08-03T21:36:31.729Z,94988
2022-08-03T21:39:57.581Z,94981
2022-08-03T21:43:23.258Z,94980
2022-08-03T21:46:49.028Z,94987
2022-08-03T21:50:14.803Z,94984
2022-08-03T21:54:00.547Z,94984
2022-08-03T21:57:06.358Z,94983
2022-08-03T22:00:32.159Z,94988
2022-08-03T22:03:58.459Z,94987
2022-08-03T22:07:23.857Z,94988
2022-08-03T22:10:49.482Z,94986
2022-08-03T22:14:15.271Z,94989
2022-08-03T22:17:54.419Z,94980
2022-08-03T22:21:05.901Z,94985
2022-08-03T22:24:31.213Z,94984
2022-08-03T22:27:56.515Z,94985
2022-08-03T22:31:30.203Z,94988
2022-08-03T22:34:47.130Z,94983
2022-08-03T22:38:12.443Z,94991
2022-08-03T22:41:37.760Z,94992
2022-08-03T22:45:03.074Z,94992
2022-08-03T22:48:28.385Z,94995
2022-08-03T22:51:53.678Z,94994
2022-08-03T22:55:24.697Z,94993
2022-08-03T22:58:44.317Z,94989
2022-08-03T23:02:14.987Z,94991
2022-08-03T23:06:00.032Z,94992
2022-08-03T23:09:00.257Z,94990
2022-08-03T23:12:25.573Z,94991
2022-08-03T23:15:50.885Z,94993
2022-08-03T23:19:16.876Z,94988
2022-08-03T23:22:42.821Z,94988
2022-08-03T23:26:06.845Z,94989
2022-08-03T23:29:32.165Z,94994
2022-08-03T23:32:57.481Z,94989
2022-08-03T23:36:30.039Z,94995
2022-08-03T23:39:48.087Z,94991
2022-08-03T23:43:16.732Z,94991
2022-08-03T23:46:38.665Z,94993
2022-08-03T23:50:04.036Z,94991
2022-08-03T23:53:29.334Z,94991
2022-08-03T23:56:54.633Z,94992
